Lavela — 2BPL5 — position and weather

sailwx.info

Track history (hours):
 
Tides and Currents Weather Stations Pressure Air Temp Water Temp Dewpoint Dewpoint Depression Visibility Wind Speed Wind Dir Waves Ship Positions

Lavela

Last reported at 2017-Oct-06 13:49 UTC. Time now 2017-Oct-18 20:23 UTC.
Position N 34°40' E 033°06'.
Warning: this ship's position is 12 days out of date.

Length 175 m; draft 8.4 m.

Type: Ship. MMSI: 235068202.

Date/timePositionNaut miles runAvg speedWind from/ knotsBaromVisibWave heightAir tempDewpointWater temp
2017-Oct-06 13:49N 34°40' E 033°06'  
2017-Oct-03 18:48N 36°26' E 014°45'514.0
2017-Oct-03 18:27N 36°27' E 014°39'613.8
2017-Oct-03 18:00N 36°29' E 014°32'713.9
2017-Oct-03 17:30N 36°32' E 014°24'714.0
2017-Oct-03 17:00N 36°34' E 014°16'714.0
2017-Oct-03 16:30N 36°37' E 014°08'714.0
2017-Oct-03 16:00N 36°40' E 013°59'713.9
2017-Oct-03 15:31N 36°42' E 013°51'713.7
2017-Oct-03 15:00N 36°45' E 013°44'26812.8
2017-Oct-02 18:06N 38°29' E 008°32'112.5
2017-Oct-02 18:00N 38°29' E 008°30'  
2017-Sep-28 01:11N 41°10' E 002°06'213.6
2017-Sep-28 01:00N 41°08' E 002°05'713.6
2017-Sep-28 00:30N 41°02' E 002°02'713.7
2017-Sep-28 00:00N 40°56' E 001°58'913.5
2017-Sep-27 23:21N 40°48' E 001°52'513.4
2017-Sep-27 23:00N 40°44' E 001°49'713.3
2017-Sep-27 22:30N 40°38' E 001°45'713.2
2017-Sep-27 22:01N 40°32' E 001°41'713.4
2017-Sep-27 21:30N 40°26' E 001°37'713.4
2017-Sep-27 21:00N 40°20' E 001°33'713.1
2017-Sep-27 20:30N 40°14' E 001°29'713.2
2017-Sep-27 20:00N 40°08' E 001°25'713.4
2017-Sep-27 19:30N 40°02' E 001°21'713.3
2017-Sep-27 19:00N 39°57' E 001°17'713.5
2017-Sep-27 18:30N 39°51' E 001°13'713.5
2017-Sep-27 18:00N 39°45' E 001°09'13313.7
2017-Sep-27 08:20N 37°50' W 000°17'613.6
2017-Sep-27 07:54N 37°45' W 000°20'513.4
2017-Sep-27 07:30N 37°40' W 000°23'713.1
2017-Sep-27 07:00N 37°35' W 000°29'612.9
2017-Sep-27 06:30N 37°31' W 000°34'713.0
2017-Sep-27 05:59N 37°26' W 000°40'613.1
2017-Sep-27 05:30N 37°22' W 000°46'713.3
2017-Sep-27 04:57N 37°17' W 000°53'  
Track history (hours):
 
Tides and Currents Weather Stations Pressure Air Temp Water Temp Dewpoint Dewpoint Depression Visibility Wind Speed Wind Dir Waves Ship Positions

Lavela

Last reported at 2017-Oct-06 13:49 UTC. Time now 2017-Oct-18 20:23 UTC.
Position N 34°40' E 033°06'.
Warning: this ship's position is 12 days out of date.

Length 175 m; draft 8.4 m.

Type: Ship. MMSI: 235068202.

Date/timePositionNaut miles runAvg speedWind from/ knotsBaromVisibWave heightAir tempDewpointWater temp
2017-Oct-06 13:49N 34°40' E 033°06'  
2017-Oct-03 18:48N 36°26' E 014°45'514.0
2017-Oct-03 18:27N 36°27' E 014°39'613.8
2017-Oct-03 18:00N 36°29' E 014°32'713.9
2017-Oct-03 17:30N 36°32' E 014°24'714.0
2017-Oct-03 17:00N 36°34' E 014°16'714.0
2017-Oct-03 16:30N 36°37' E 014°08'714.0
2017-Oct-03 16:00N 36°40' E 013°59'713.9
2017-Oct-03 15:31N 36°42' E 013°51'713.7
2017-Oct-03 15:00N 36°45' E 013°44'26812.8
2017-Oct-02 18:06N 38°29' E 008°32'112.5
2017-Oct-02 18:00N 38°29' E 008°30'  
2017-Sep-28 01:11N 41°10' E 002°06'213.6
2017-Sep-28 01:00N 41°08' E 002°05'713.6
2017-Sep-28 00:30N 41°02' E 002°02'713.7
2017-Sep-28 00:00N 40°56' E 001°58'913.5
2017-Sep-27 23:21N 40°48' E 001°52'513.4
2017-Sep-27 23:00N 40°44' E 001°49'713.3
2017-Sep-27 22:30N 40°38' E 001°45'713.2
2017-Sep-27 22:01N 40°32' E 001°41'713.4
2017-Sep-27 21:30N 40°26' E 001°37'713.4
2017-Sep-27 21:00N 40°20' E 001°33'713.1
2017-Sep-27 20:30N 40°14' E 001°29'713.2
2017-Sep-27 20:00N 40°08' E 001°25'713.4
2017-Sep-27 19:30N 40°02' E 001°21'713.3
2017-Sep-27 19:00N 39°57' E 001°17'713.5
2017-Sep-27 18:30N 39°51' E 001°13'713.5
2017-Sep-27 18:00N 39°45' E 001°09'13313.7
2017-Sep-27 08:20N 37°50' W 000°17'613.6
2017-Sep-27 07:54N 37°45' W 000°20'513.4
2017-Sep-27 07:30N 37°40' W 000°23'713.1
2017-Sep-27 07:00N 37°35' W 000°29'612.9
2017-Sep-27 06:30N 37°31' W 000°34'713.0
2017-Sep-27 05:59N 37°26' W 000°40'613.1
2017-Sep-27 05:30N 37°22' W 000°46'713.3
2017-Sep-27 04:57N 37°17' W 000°53'  

Dump ship's entire track history